createdAt,value
2023-01-11T00:01:09.100Z,59.59
2023-01-11T00:03:38.389Z,59.54
2023-01-11T00:06:07.955Z,59.50
2023-01-11T00:08:35.903Z,59.53
2023-01-11T00:11:03.795Z,59.39
2023-01-11T00:13:32.188Z,59.54
2023-01-11T00:16:06.439Z,58.98
2023-01-11T00:18:34.407Z,59.19
2023-01-11T00:21:05.651Z,59.42
2023-01-11T00:23:33.613Z,59.15
2023-01-11T00:26:03.618Z,59.01
2023-01-11T00:28:31.710Z,58.98
2023-01-11T00:30:59.642Z,58.82
2023-01-11T00:33:27.626Z,59.09
2023-01-11T00:35:55.587Z,59.30
2023-01-11T00:38:42.606Z,59.11
2023-01-11T00:41:24.794Z,59.19
2023-01-11T00:44:09.883Z,59.32
2023-01-11T00:47:00.511Z,59.45
2023-01-11T00:49:28.419Z,59.44
2023-01-11T00:51:56.292Z,59.46
2023-01-11T00:54:25.539Z,59.47
2023-01-11T00:56:53.446Z,59.44
2023-01-11T00:59:21.299Z,59.34
2023-01-11T01:01:49.181Z,59.34
2023-01-11T01:04:17.086Z,59.29
2023-01-11T01:06:45.035Z,59.04
2023-01-11T01:09:12.984Z,59.28
2023-01-11T01:11:42.241Z,59.25
2023-01-11T01:14:29.347Z,58.96
2023-01-11T01:16:58.189Z,58.82
2023-01-11T01:19:27.737Z,58.68
2023-01-11T01:21:56.058Z,58.34
2023-01-11T01:24:24.175Z,58.40
2023-01-11T01:26:53.447Z,58.28
2023-01-11T01:29:21.491Z,58.31
2023-01-11T01:31:49.344Z,58.27
2023-01-11T01:34:17.240Z,58.23
2023-01-11T01:36:45.199Z,57.85
2023-01-11T01:39:13.180Z,57.27
2023-01-11T01:41:41.093Z,57.15
2023-01-11T01:44:42.384Z,56.84
2023-01-11T01:47:11.615Z,56.74
2023-01-11T01:49:39.469Z,56.73
2023-01-11T01:52:07.411Z,56.81
2023-01-11T01:54:36.849Z,56.51
2023-01-11T01:57:06.744Z,56.44
2023-01-11T01:59:34.649Z,56.32
2023-01-11T02:02:02.593Z,56.21
2023-01-11T02:04:32.972Z,56.31
2023-01-11T02:07:02.314Z,56.49
2023-01-11T02:09:33.638Z,56.15
2023-01-11T02:12:01.667Z,56.12
2023-01-11T02:14:29.554Z,56.96
2023-01-11T02:16:57.454Z,57.77
2023-01-11T02:19:52.700Z,58.49
2023-01-11T02:22:51.369Z,59.29
2023-01-11T02:25:39.152Z,59.73
2023-01-11T02:28:10.645Z,59.96
2023-01-11T02:30:40.414Z,60.25
2023-01-11T02:33:14.363Z,60.09
2023-01-11T02:35:45.320Z,60.37
2023-01-11T02:38:15.589Z,60.61
2023-01-11T02:40:49.012Z,60.61
2023-01-11T02:43:36.895Z,60.62
2023-01-11T02:46:07.715Z,60.80
2023-01-11T02:48:38.573Z,60.79
2023-01-11T02:51:08.986Z,60.89
2023-01-11T02:53:38.053Z,60.83
2023-01-11T02:56:08.405Z,60.77
2023-01-11T02:58:38.968Z,60.77
2023-01-11T03:01:06.995Z,60.71
2023-01-11T03:03:34.892Z,61.04
2023-01-11T03:06:03.521Z,61.10
2023-01-11T03:08:56.246Z,60.89
2023-01-11T03:11:43.377Z,61.07
2023-01-11T03:14:18.631Z,60.72
2023-01-11T03:16:48.070Z,60.23
2023-01-11T03:19:20.825Z,60.27
2023-01-11T03:21:51.175Z,60.04
2023-01-11T03:24:24.439Z,60.07
2023-01-11T03:26:59.533Z,59.96
2023-01-11T03:29:30.589Z,59.81
2023-01-11T03:32:04.703Z,59.71
2023-01-11T03:34:34.048Z,59.42
2023-01-11T03:37:04.687Z,58.62
2023-01-11T03:39:34.550Z,58.07
2023-01-11T03:42:02.824Z,58.69
2023-01-11T03:44:34.216Z,58.93
2023-01-11T03:47:04.039Z,58.94
2023-01-11T03:49:33.151Z,58.83
2023-01-11T03:52:01.875Z,58.88
2023-01-11T03:54:30.170Z,59.19
2023-01-11T03:57:00.788Z,59.09
2023-01-11T03:59:28.698Z,59.10
2023-01-11T04:01:57.948Z,59.19
2023-01-11T04:04:25.934Z,59.20
2023-01-11T04:06:53.939Z,59.15
2023-01-11T04:09:21.872Z,59.20
2023-01-11T04:11:49.727Z,59.00
2023-01-11T04:14:17.606Z,59.09
2023-01-11T04:16:45.460Z,59.10
2023-01-11T04:19:14.718Z,58.84
2023-01-11T04:21:42.689Z,58.83
2023-01-11T04:24:10.844Z,58.63
2023-01-11T04:26:38.792Z,58.56
2023-01-11T04:29:06.708Z,58.50
2023-01-11T04:31:34.601Z,58.31
2023-01-11T04:34:02.471Z,57.90
2023-01-11T04:36:32.667Z,57.08
2023-01-11T04:39:00.527Z,56.47
2023-01-11T04:41:45.847Z,55.85
2023-01-11T04:44:13.842Z,55.95
2023-01-11T04:46:41.739Z,56.03
2023-01-11T04:49:10.259Z,55.42
2023-01-11T04:51:39.836Z,55.55
2023-01-11T04:54:07.702Z,55.61
2023-01-11T04:56:36.362Z,55.33
2023-01-11T04:59:04.231Z,55.15
2023-01-11T05:01:32.154Z,54.73
2023-01-11T05:04:00.191Z,55.15
2023-01-11T05:06:28.231Z,55.02
2023-01-11T05:08:57.482Z,54.63
2023-01-11T05:11:25.491Z,54.28
2023-01-11T05:13:53.375Z,54.21
2023-01-11T05:16:23.615Z,54.43
2023-01-11T05:18:52.195Z,54.14
2023-01-11T05:21:20.684Z,54.62
2023-01-11T05:23:48.589Z,54.31
2023-01-11T05:26:18.754Z,54.22
2023-01-11T05:28:46.704Z,53.88
2023-01-11T05:31:14.660Z,53.92
2023-01-11T05:33:42.716Z,53.86
2023-01-11T05:36:12.950Z,53.98
2023-01-11T05:38:40.814Z,54.02
2023-01-11T05:41:10.138Z,54.27
2023-01-11T05:43:59.532Z,54.15
2023-01-11T05:46:27.047Z,54.37
2023-01-11T05:48:55.887Z,54.58
2023-01-11T05:51:23.815Z,54.45
2023-01-11T05:53:53.024Z,54.60
2023-01-11T05:56:20.980Z,54.69
2023-01-11T05:58:50.301Z,54.92
2023-01-11T06:01:18.354Z,55.10
2023-01-11T06:03:46.214Z,54.78
2023-01-11T06:06:15.227Z,54.78
2023-01-11T06:08:43.149Z,54.85
2023-01-11T06:11:11.057Z,54.80
2023-01-11T06:13:39.015Z,55.19
2023-01-11T06:16:09.068Z,55.35
2023-01-11T06:18:37.654Z,55.32
2023-01-11T06:21:05.822Z,55.26
2023-01-11T06:23:34.499Z,55.07
2023-01-11T06:26:02.416Z,54.85
2023-01-11T06:28:30.285Z,54.31
2023-01-11T06:30:58.950Z,54.51
2023-01-11T06:33:28.904Z,54.08
2023-01-11T06:35:56.997Z,54.26
2023-01-11T06:38:25.597Z,54.11
2023-01-11T06:40:54.142Z,54.32
2023-01-11T06:43:22.131Z,54.34
2023-01-11T06:45:50.054Z,54.61
2023-01-11T06:48:17.975Z,54.93
2023-01-11T06:50:48.458Z,54.99
2023-01-11T06:53:16.376Z,54.75
2023-01-11T06:55:44.216Z,54.39
2023-01-11T06:58:12.096Z,54.24
2023-01-11T07:00:40.156Z,54.17
2023-01-11T07:03:08.162Z,54.25
2023-01-11T07:05:36.658Z,54.35
2023-01-11T07:08:06.249Z,54.35
2023-01-11T07:10:34.142Z,54.08
2023-01-11T07:13:02.081Z,54.23
2023-01-11T07:15:30.106Z,54.26
2023-01-11T07:17:58.333Z,54.19
2023-01-11T07:20:26.531Z,54.20
2023-01-11T07:22:57.418Z,54.19
2023-01-11T07:25:27.783Z,54.33
2023-01-11T07:27:59.854Z,54.45
2023-01-11T07:30:28.141Z,54.81
2023-01-11T07:32:56.148Z,54.86
2023-01-11T07:35:24.129Z,54.78
2023-01-11T07:37:52.042Z,54.92
2023-01-11T07:40:20.180Z,54.73
2023-01-11T07:43:07.987Z,54.53
2023-01-11T07:45:45.479Z,54.22
2023-01-11T07:48:14.172Z,53.88
2023-01-11T07:50:44.765Z,53.60
2023-01-11T07:53:13.465Z,53.26
2023-01-11T07:55:41.457Z,53.44
2023-01-11T07:58:11.388Z,53.39
2023-01-11T08:00:40.728Z,53.48
2023-01-11T08:03:08.781Z,53.75
2023-01-11T08:05:36.915Z,53.80
2023-01-11T08:08:04.939Z,54.11
2023-01-11T08:10:32.787Z,54.46
2023-01-11T08:13:18.296Z,54.59
2023-01-11T08:15:47.597Z,54.80
2023-01-11T08:18:17.136Z,55.20
2023-01-11T08:20:45.721Z,55.28
2023-01-11T08:23:13.781Z,55.44
2023-01-11T08:25:41.652Z,55.51
2023-01-11T08:28:09.718Z,55.64
2023-01-11T08:30:37.650Z,55.72
2023-01-11T08:33:07.061Z,55.66
2023-01-11T08:35:38.588Z,56.01
2023-01-11T08:38:06.607Z,55.95
2023-01-11T08:40:34.577Z,55.91
2023-01-11T08:43:02.522Z,56.04
2023-01-11T08:45:30.421Z,55.67
2023-01-11T08:47:58.375Z,55.89
2023-01-11T08:50:27.780Z,55.66
2023-01-11T08:52:55.772Z,55.38
2023-01-11T08:55:23.739Z,55.37
2023-01-11T08:57:51.620Z,55.13
2023-01-11T09:00:21.587Z,54.78
2023-01-11T09:02:49.573Z,54.41
2023-01-11T09:05:18.450Z,54.31
2023-01-11T09:07:47.832Z,54.46
2023-01-11T09:10:16.305Z,54.56
2023-01-11T09:12:44.435Z,54.29
2023-01-11T09:15:12.781Z,54.25
2023-01-11T09:17:40.661Z,54.19
2023-01-11T09:20:09.630Z,54.27
2023-01-11T09:22:37.664Z,53.72
2023-01-11T09:25:08.329Z,53.95
2023-01-11T09:27:36.173Z,53.57
2023-01-11T09:30:04.336Z,53.73
2023-01-11T09:32:32.247Z,53.57
2023-01-11T09:35:01.124Z,53.50
2023-01-11T09:37:29.092Z,53.09
2023-01-11T09:39:58.083Z,52.53
2023-01-11T09:42:37.575Z,52.39
2023-01-11T09:45:11.510Z,52.40
2023-01-11T09:47:41.066Z,52.14
2023-01-11T09:50:13.626Z,51.95
2023-01-11T09:52:43.652Z,51.69
2023-01-11T09:55:15.395Z,51.69
2023-01-11T09:57:50.305Z,51.96
2023-01-11T10:00:23.720Z,51.89
2023-01-11T10:03:03.345Z,52.25
2023-01-11T10:05:40.970Z,52.72
2023-01-11T10:14:06.261Z,54.96
2023-01-11T10:18:27.583Z,56.11
2023-01-11T10:19:49.464Z,57.56
2023-01-11T10:22:19.398Z,58.37
2023-01-11T10:24:48.483Z,59.01
2023-01-11T10:27:21.471Z,59.18
2023-01-11T10:30:12.841Z,59.73
2023-01-11T10:32:58.981Z,59.83
2023-01-11T10:35:43.119Z,60.10
2023-01-11T10:38:30.759Z,60.01
2023-01-11T10:41:06.644Z,59.95
2023-01-11T10:43:35.712Z,59.71
2023-01-11T10:48:36.671Z,59.44
2023-01-11T10:51:06.434Z,59.48
2023-01-11T10:53:37.176Z,59.38
2023-01-11T10:56:12.522Z,59.36
2023-01-11T10:58:58.807Z,59.27
2023-01-11T11:01:34.926Z,59.15
2023-01-11T11:04:14.900Z,59.06
2023-01-11T11:06:46.005Z,59.48
2023-01-11T11:09:18.589Z,59.52
2023-01-11T11:11:53.081Z,59.64
2023-01-11T11:14:23.945Z,59.89
2023-01-11T11:16:59.653Z,59.86
2023-01-11T11:19:30.628Z,59.96
2023-01-11T11:21:58.485Z,60.13
2023-01-11T11:24:32.578Z,60.39
2023-01-11T11:27:08.356Z,60.66
2023-01-11T11:29:42.287Z,61.25
2023-01-11T11:32:18.247Z,61.26
2023-01-11T11:34:48.026Z,61.48
2023-01-11T11:37:21.932Z,61.34
2023-01-11T11:39:50.178Z,61.23
2023-01-11T11:42:18.520Z,61.14
2023-01-11T11:44:46.476Z,60.79
2023-01-11T11:47:17.403Z,60.34
2023-01-11T11:49:46.029Z,60.16
2023-01-11T11:52:14.685Z,59.82
2023-01-11T11:54:43.377Z,59.72
2023-01-11T11:57:15.778Z,59.51
2023-01-11T11:59:46.145Z,59.18
2023-01-11T12:02:22.658Z,58.77
2023-01-11T12:04:50.659Z,58.95
2023-01-11T12:07:19.621Z,58.66
2023-01-11T12:09:48.909Z,58.57
2023-01-11T12:12:23.343Z,58.29
2023-01-11T12:15:21.328Z,57.93
2023-01-11T12:17:50.619Z,57.81
2023-01-11T12:20:35.537Z,57.97
2023-01-11T12:23:18.001Z,57.81
2023-01-11T12:26:04.572Z,57.71
2023-01-11T12:28:46.516Z,57.83
2023-01-11T12:31:16.355Z,57.93
2023-01-11T12:33:48.616Z,57.90
2023-01-11T12:36:18.974Z,57.57
2023-01-11T12:38:53.751Z,57.54
2023-01-11T12:41:50.184Z,57.50
2023-01-11T12:44:31.694Z,57.92
2023-01-11T12:47:08.676Z,58.05
2023-01-11T12:49:41.398Z,58.55
2023-01-11T12:52:31.272Z,58.92
2023-01-11T12:55:07.751Z,59.31
2023-01-11T12:57:37.207Z,59.53
2023-01-11T13:00:28.230Z,59.54
2023-01-11T13:03:26.657Z,59.39
2023-01-11T13:06:01.617Z,59.18
2023-01-11T13:08:35.180Z,59.38
2023-01-11T13:11:06.117Z,60.32
2023-01-11T13:13:36.745Z,60.77
2023-01-11T13:16:07.319Z,61.19
2023-01-11T13:18:38.446Z,59.70
2023-01-11T13:21:12.384Z,61.37
2023-01-11T13:23:43.079Z,62.68
2023-01-11T13:26:17.599Z,63.10
2023-01-11T13:28:45.985Z,63.93
2023-01-11T13:31:14.270Z,64.18
2023-01-11T13:33:43.397Z,64.02
2023-01-11T13:36:22.694Z,64.25
2023-01-11T13:38:54.887Z,64.48
2023-01-11T13:41:23.799Z,63.67
2023-01-11T13:43:55.203Z,62.73
2023-01-11T13:46:28.852Z,62.92
2023-01-11T13:48:57.475Z,63.58
2023-01-11T13:51:30.605Z,63.90
2023-01-11T13:54:01.289Z,64.32
2023-01-11T13:56:31.667Z,64.41
2023-01-11T13:59:01.778Z,64.54
2023-01-11T14:01:36.891Z,64.42
2023-01-11T14:04:07.172Z,64.65
2023-01-11T14:06:49.269Z,64.48
2023-01-11T14:09:31.298Z,65.03
2023-01-11T14:12:02.053Z,64.77
2023-01-11T14:14:45.441Z,64.99
2023-01-11T14:17:30.109Z,64.95
2023-01-11T14:20:00.827Z,65.00
2023-01-11T14:22:33.802Z,64.75
2023-01-11T14:25:02.822Z,64.48
2023-01-11T14:27:41.829Z,64.47
2023-01-11T14:30:48.446Z,64.08
2023-01-11T14:33:55.832Z,64.04
2023-01-11T14:36:44.184Z,63.85
2023-01-11T14:39:36.182Z,63.52
2023-01-11T14:42:45.360Z,62.89
2023-01-11T14:45:20.151Z,62.18
2023-01-11T14:48:06.985Z,62.07
2023-01-11T14:50:41.066Z,62.20
2023-01-11T14:53:09.364Z,62.86
2023-01-11T14:55:45.033Z,63.29
2023-01-11T14:58:21.410Z,63.77
2023-01-11T15:01:10.219Z,64.21
2023-01-11T15:03:42.825Z,64.48
2023-01-11T15:06:15.083Z,64.57
2023-01-11T15:08:44.787Z,64.57
2023-01-11T15:11:25.834Z,64.48
2023-01-11T15:13:56.362Z,64.59
2023-01-11T15:16:44.128Z,64.75
2023-01-11T15:19:23.927Z,64.71
2023-01-11T15:21:53.360Z,64.80
2023-01-11T15:24:23.120Z,64.94
2023-01-11T15:26:52.568Z,65.06
2023-01-11T15:29:24.369Z,64.94
2023-01-11T15:32:08.491Z,65.26
2023-01-11T15:34:43.632Z,65.45
2023-01-11T15:37:26.355Z,65.50
2023-01-11T15:39:57.900Z,65.44
2023-01-11T15:42:52.703Z,65.42
2023-01-11T15:45:36.607Z,65.69
2023-01-11T15:48:16.935Z,66.06
2023-01-11T15:50:52.649Z,66.08
2023-01-11T15:53:38.871Z,66.19
2023-01-11T15:56:28.950Z,66.08
2023-01-11T15:59:20.068Z,65.93
2023-01-11T16:02:05.960Z,65.70
2023-01-11T16:04:35.042Z,65.69
2023-01-11T16:07:05.503Z,65.57
2023-01-11T16:09:49.247Z,65.10
2023-01-11T16:12:31.230Z,65.03
2023-01-11T16:15:10.276Z,64.97
2023-01-11T16:17:41.068Z,64.59
2023-01-11T16:20:23.375Z,64.48
2023-01-11T16:22:52.922Z,64.47
2023-01-11T16:25:21.349Z,64.30
2023-01-11T16:27:52.813Z,64.22
2023-01-11T16:30:22.246Z,64.18
2023-01-11T16:32:50.077Z,64.02
2023-01-11T16:35:19.010Z,64.12
2023-01-11T16:37:48.822Z,64.10
2023-01-11T16:40:17.509Z,63.86
2023-01-11T16:42:47.313Z,63.70
2023-01-11T16:45:15.876Z,63.63
2023-01-11T16:47:45.072Z,63.73
2023-01-11T16:50:21.239Z,63.63
2023-01-11T16:52:49.873Z,63.22
2023-01-11T16:55:20.340Z,63.40
2023-01-11T16:57:50.169Z,63.16
2023-01-11T17:00:23.431Z,63.17
2023-01-11T17:03:00.800Z,62.87
2023-01-11T17:05:31.702Z,62.55
2023-01-11T17:07:59.595Z,62.52
2023-01-11T17:10:28.613Z,62.32
2023-01-11T17:13:35.292Z,62.43
2023-01-11T17:16:05.169Z,62.04
2023-01-11T17:18:34.545Z,61.85
2023-01-11T17:21:02.428Z,61.84
2023-01-11T17:23:30.626Z,61.67
2023-01-11T17:25:58.546Z,61.60
2023-01-11T17:28:26.561Z,61.70
2023-01-11T17:30:54.512Z,61.96
2023-01-11T17:33:26.170Z,61.94
2023-01-11T17:35:55.450Z,61.73
2023-01-11T17:38:23.841Z,61.52
2023-01-11T17:40:51.777Z,61.62
2023-01-11T17:43:39.091Z,61.24
2023-01-11T17:46:07.292Z,61.23
2023-01-11T17:48:35.227Z,60.98
2023-01-11T17:51:05.131Z,61.14
2023-01-11T17:53:33.918Z,61.02
2023-01-11T17:56:02.422Z,60.97
2023-01-11T17:58:30.939Z,61.06
2023-01-11T18:01:22.699Z,61.37
2023-01-11T18:03:51.269Z,61.70
2023-01-11T18:06:32.580Z,61.99
2023-01-11T18:09:00.651Z,62.33
2023-01-11T18:11:29.511Z,62.74
2023-01-11T18:13:58.556Z,63.04
2023-01-11T18:16:26.577Z,63.05
2023-01-11T18:18:54.645Z,63.16
2023-01-11T18:21:41.558Z,63.47
2023-01-11T18:24:32.603Z,63.41
2023-01-11T18:27:28.401Z,63.64
2023-01-11T18:29:57.461Z,63.72
2023-01-11T18:32:25.410Z,63.66
2023-01-11T18:34:54.644Z,63.32
2023-01-11T18:37:23.987Z,63.63
2023-01-11T18:39:53.096Z,63.65
2023-01-11T18:42:30.626Z,63.34
2023-01-11T18:44:58.762Z,63.73
2023-01-11T18:47:28.499Z,63.30
2023-01-11T18:49:56.598Z,63.35
2023-01-11T18:52:27.633Z,63.26
2023-01-11T18:54:56.003Z,63.56
2023-01-11T18:57:24.318Z,63.05
2023-01-11T18:59:53.465Z,63.07
2023-01-11T19:02:24.015Z,62.80
2023-01-11T19:04:52.293Z,62.99
2023-01-11T19:07:20.217Z,62.64
2023-01-11T19:09:49.536Z,63.08
2023-01-11T19:12:17.487Z,63.22
2023-01-11T19:14:45.857Z,63.26
2023-01-11T19:17:14.073Z,63.38
2023-01-11T19:19:42.097Z,64.01
2023-01-11T19:22:10.854Z,63.81
2023-01-11T19:24:39.495Z,63.85
2023-01-11T19:27:08.831Z,64.06
2023-01-11T19:29:36.717Z,64.12
2023-01-11T19:32:05.016Z,64.36
2023-01-11T19:34:33.769Z,64.23
2023-01-11T19:37:01.861Z,64.44
2023-01-11T19:39:29.785Z,64.55
2023-01-11T19:42:02.352Z,64.24
2023-01-11T19:44:33.171Z,64.53
2023-01-11T19:47:16.979Z,64.56
2023-01-11T19:49:45.112Z,64.19
2023-01-11T19:52:14.406Z,64.21
2023-01-11T19:54:42.990Z,64.40
2023-01-11T19:57:11.487Z,64.31
2023-01-11T19:59:40.797Z,64.00
2023-01-11T20:02:08.742Z,64.27
2023-01-11T20:04:37.289Z,64.19
2023-01-11T20:07:05.414Z,64.15
2023-01-11T20:09:33.526Z,64.10
2023-01-11T20:12:01.406Z,63.78
2023-01-11T20:14:29.299Z,63.63
2023-01-11T20:16:58.619Z,63.73
2023-01-11T20:19:26.452Z,63.34
2023-01-11T20:21:54.529Z,63.12
2023-01-11T20:24:28.116Z,63.38
2023-01-11T20:26:56.214Z,63.46
2023-01-11T20:29:24.165Z,63.34
2023-01-11T20:31:52.081Z,63.18
2023-01-11T20:34:21.767Z,62.83
2023-01-11T20:36:49.795Z,62.67
2023-01-11T20:39:17.734Z,62.49
2023-01-11T20:41:48.690Z,62.97
2023-01-11T20:44:17.584Z,63.20
2023-01-11T20:46:47.656Z,63.50
2023-01-11T20:49:16.056Z,63.53
2023-01-11T20:51:45.497Z,63.64
2023-01-11T20:54:13.518Z,63.95
2023-01-11T20:56:41.790Z,64.17
2023-01-11T21:01:37.977Z,64.26
2023-01-11T21:04:06.822Z,64.35
2023-01-11T21:06:35.619Z,64.55
2023-01-11T21:09:05.201Z,64.41
2023-01-11T21:11:33.141Z,64.67
2023-01-11T21:14:01.533Z,64.63
2023-01-11T21:16:29.857Z,64.95
2023-01-11T21:18:58.466Z,64.95
2023-01-11T21:21:26.731Z,65.00
2023-01-11T21:23:55.209Z,64.70
2023-01-11T21:26:24.682Z,65.01
2023-01-11T21:28:53.486Z,65.14
2023-01-11T21:31:22.625Z,65.06
2023-01-11T21:33:50.656Z,65.00
2023-01-11T21:36:20.230Z,65.31
2023-01-11T21:38:48.075Z,65.38
2023-01-11T21:41:16.712Z,65.41
2023-01-11T21:43:46.075Z,65.36
2023-01-11T21:46:14.046Z,65.62
2023-01-11T21:48:41.981Z,65.54
2023-01-11T21:51:10.393Z,65.55
2023-01-11T21:53:38.270Z,65.63
2023-01-11T21:56:06.735Z,65.76
2023-01-11T21:58:34.771Z,65.55
2023-01-11T22:01:11.971Z,65.64
2023-01-11T22:03:42.149Z,65.95
2023-01-11T22:06:10.058Z,65.63
2023-01-11T22:08:38.447Z,65.95
2023-01-11T22:11:07.064Z,65.98
2023-01-11T22:13:35.925Z,65.66
2023-01-11T22:16:04.014Z,65.61
2023-01-11T22:18:33.364Z,65.57
2023-01-11T22:21:05.800Z,65.27
2023-01-11T22:23:33.740Z,65.74
2023-01-11T22:26:04.536Z,65.41
2023-01-11T22:28:32.440Z,65.37
2023-01-11T22:31:05.321Z,65.46
2023-01-11T22:33:34.665Z,65.19
2023-01-11T22:36:04.460Z,65.42
2023-01-11T22:38:32.381Z,65.68
2023-01-11T22:41:00.840Z,65.63
2023-01-11T22:43:29.496Z,65.70
2023-01-11T22:45:58.344Z,65.35
2023-01-11T22:48:26.289Z,65.73
2023-01-11T22:50:56.142Z,65.67
2023-01-11T22:53:24.124Z,65.67
2023-01-11T22:55:52.048Z,65.71
2023-01-11T22:58:19.918Z,65.38
2023-01-11T23:00:47.811Z,65.36
2023-01-11T23:03:16.599Z,65.34
2023-01-11T23:05:46.265Z,65.56
2023-01-11T23:08:15.768Z,65.27
2023-01-11T23:10:43.685Z,65.32
2023-01-11T23:13:28.782Z,65.72
2023-01-11T23:15:56.695Z,65.56
2023-01-11T23:18:24.704Z,65.77
2023-01-11T23:20:52.571Z,65.82
2023-01-11T23:23:21.846Z,65.83
2023-01-11T23:25:49.761Z,65.88
2023-01-11T23:28:17.606Z,66.00
2023-01-11T23:30:45.607Z,66.29
2023-01-11T23:33:13.463Z,66.24
2023-01-11T23:35:41.385Z,66.38
2023-01-11T23:38:09.269Z,66.36
2023-01-11T23:40:58.782Z,66.43
2023-01-11T23:43:25.668Z,66.45
2023-01-11T23:46:13.585Z,66.56
2023-01-11T23:48:40.489Z,66.29
2023-01-11T23:51:08.545Z,66.22
2023-01-11T23:53:36.510Z,66.23
2023-01-11T23:56:06.453Z,66.45
2023-01-11T23:58:34.317Z,66.31
